Terminal Aerodrome Forecast
Issued by NWS

Home | Current Version | Previous Version | Text Only | Print | Product List | Glossary On
Versions: 1 2 3 4 5 6 7 8 9 10 11 12 13 14 15 16 17 18 19 20 21 22 23
000
FTUS46 KSEW 271100
TAFOLM
TAF
KOLM 271130Z 2712/2812 20010G20KT P6SM -RA OVC025
      TEMPO 2712/2716 4SM -RA BR BKN020
     FM272000 18012KT P6SM -RA SCT025 BKN030 BKN080=

USA.gov is the U.S. government's official web portal to all federal, state and local government web resources and services.